sensor_id;sensor_type;location;lat;lon;timestamp;P1;durP1;ratioP1;P2;durP2;ratioP2
19038;SDS011;9652;49.014;12.052;2023-04-24T00:01:10;2.50;;;2.13;;
19038;SDS011;9652;49.014;12.052;2023-04-24T00:03:39;1.80;;;1.70;;
19038;SDS011;9652;49.014;12.052;2023-04-24T00:06:06;2.27;;;2.07;;
19038;SDS011;9652;49.014;12.052;2023-04-24T00:08:33;2.53;;;2.33;;
19038;SDS011;9652;49.014;12.052;2023-04-24T00:11:01;2.20;;;2.00;;
19038;SDS011;9652;49.014;12.052;2023-04-24T00:13:28;3.10;;;2.30;;
19038;SDS011;9652;49.014;12.052;2023-04-24T00:15:55;2.50;;;2.30;;
19038;SDS011;9652;49.014;12.052;2023-04-24T00:18:22;2.60;;;2.40;;
19038;SDS011;9652;49.014;12.052;2023-04-24T00:20:50;2.23;;;1.97;;
19038;SDS011;9652;49.014;12.052;2023-04-24T00:23:18;2.37;;;2.20;;
19038;SDS011;9652;49.014;12.052;2023-04-24T00:25:45;2.83;;;2.10;;
19038;SDS011;9652;49.014;12.052;2023-04-24T00:28:12;2.10;;;2.00;;
19038;SDS011;9652;49.014;12.052;2023-04-24T00:30:39;3.30;;;2.43;;
19038;SDS011;9652;49.014;12.052;2023-04-24T00:33:06;2.40;;;1.97;;
19038;SDS011;9652;49.014;12.052;2023-04-24T00:35:34;2.67;;;2.40;;
19038;SDS011;9652;49.014;12.052;2023-04-24T00:38:02;2.17;;;2.07;;
19038;SDS011;9652;49.014;12.052;2023-04-24T00:40:29;2.30;;;2.10;;
19038;SDS011;9652;49.014;12.052;2023-04-24T00:42:56;5.57;;;2.50;;
19038;SDS011;9652;49.014;12.052;2023-04-24T00:45:24;2.37;;;2.17;;
19038;SDS011;9652;49.014;12.052;2023-04-24T00:47:52;3.00;;;2.70;;
19038;SDS011;9652;49.014;12.052;2023-04-24T00:50:20;2.73;;;2.53;;
19038;SDS011;9652;49.014;12.052;2023-04-24T00:52:47;3.63;;;2.53;;
19038;SDS011;9652;49.014;12.052;2023-04-24T00:55:16;3.23;;;2.93;;
19038;SDS011;9652;49.014;12.052;2023-04-24T00:57:43;3.43;;;2.67;;
19038;SDS011;9652;49.014;12.052;2023-04-24T01:00:12;3.07;;;2.73;;
19038;SDS011;9652;49.014;12.052;2023-04-24T01:02:41;2.77;;;2.57;;
19038;SDS011;9652;49.014;12.052;2023-04-24T01:05:10;3.63;;;3.00;;
19038;SDS011;9652;49.014;12.052;2023-04-24T01:07:38;2.70;;;2.50;;
19038;SDS011;9652;49.014;12.052;2023-04-24T01:10:09;2.67;;;2.47;;
19038;SDS011;9652;49.014;12.052;2023-04-24T01:12:38;2.77;;;2.57;;
19038;SDS011;9652;49.014;12.052;2023-04-24T01:15:06;3.27;;;2.73;;
19038;SDS011;9652;49.014;12.052;2023-04-24T01:17:34;3.33;;;3.00;;
19038;SDS011;9652;49.014;12.052;2023-04-24T01:20:02;3.40;;;2.80;;
19038;SDS011;9652;49.014;12.052;2023-04-24T01:22:32;2.63;;;2.43;;
19038;SDS011;9652;49.014;12.052;2023-04-24T01:24:59;2.90;;;2.70;;
19038;SDS011;9652;49.014;12.052;2023-04-24T01:27:29;3.10;;;2.80;;
19038;SDS011;9652;49.014;12.052;2023-04-24T01:29:56;3.17;;;2.87;;
19038;SDS011;9652;49.014;12.052;2023-04-24T01:32:23;3.50;;;3.03;;
19038;SDS011;9652;49.014;12.052;2023-04-24T01:34:51;3.30;;;3.00;;
19038;SDS011;9652;49.014;12.052;2023-04-24T01:37:18;3.40;;;3.10;;
19038;SDS011;9652;49.014;12.052;2023-04-24T01:39:46;3.13;;;2.93;;
19038;SDS011;9652;49.014;12.052;2023-04-24T01:42:13;3.93;;;3.17;;
19038;SDS011;9652;49.014;12.052;2023-04-24T01:44:42;3.60;;;3.30;;
19038;SDS011;9652;49.014;12.052;2023-04-24T01:47:09;4.23;;;3.03;;
19038;SDS011;9652;49.014;12.052;2023-04-24T01:49:37;3.90;;;3.60;;
19038;SDS011;9652;49.014;12.052;2023-04-24T01:52:05;5.47;;;4.10;;
19038;SDS011;9652;49.014;12.052;2023-04-24T01:54:32;5.00;;;4.50;;
19038;SDS011;9652;49.014;12.052;2023-04-24T01:57:02;4.97;;;4.47;;
19038;SDS011;9652;49.014;12.052;2023-04-24T01:59:29;4.50;;;4.10;;
19038;SDS011;9652;49.014;12.052;2023-04-24T02:01:59;4.17;;;3.70;;
19038;SDS011;9652;49.014;12.052;2023-04-24T02:04:26;5.53;;;5.03;;
19038;SDS011;9652;49.014;12.052;2023-04-24T02:06:53;5.53;;;4.90;;
19038;SDS011;9652;49.014;12.052;2023-04-24T02:09:20;9.30;;;4.83;;
19038;SDS011;9652;49.014;12.052;2023-04-24T02:11:47;5.90;;;5.30;;
19038;SDS011;9652;49.014;12.052;2023-04-24T02:14:16;4.90;;;4.50;;
19038;SDS011;9652;49.014;12.052;2023-04-24T02:16:43;5.07;;;4.57;;
19038;SDS011;9652;49.014;12.052;2023-04-24T02:19:10;5.17;;;4.43;;
19038;SDS011;9652;49.014;12.052;2023-04-24T02:21:37;4.70;;;3.93;;
19038;SDS011;9652;49.014;12.052;2023-04-24T02:24:07;6.07;;;5.47;;
19038;SDS011;9652;49.014;12.052;2023-04-24T02:26:34;5.73;;;5.10;;
19038;SDS011;9652;49.014;12.052;2023-04-24T02:29:01;5.00;;;4.50;;
19038;SDS011;9652;49.014;12.052;2023-04-24T02:31:30;5.73;;;4.90;;
19038;SDS011;9652;49.014;12.052;2023-04-24T02:33:57;5.33;;;4.83;;
19038;SDS011;9652;49.014;12.052;2023-04-24T02:36:24;4.83;;;4.43;;
19038;SDS011;9652;49.014;12.052;2023-04-24T02:38:51;4.73;;;4.27;;
19038;SDS011;9652;49.014;12.052;2023-04-24T02:41:18;5.73;;;4.33;;
19038;SDS011;9652;49.014;12.052;2023-04-24T02:43:45;5.67;;;4.43;;
19038;SDS011;9652;49.014;12.052;2023-04-24T02:46:12;5.30;;;4.80;;
19038;SDS011;9652;49.014;12.052;2023-04-24T02:48:41;5.83;;;4.50;;
19038;SDS011;9652;49.014;12.052;2023-04-24T02:51:08;5.20;;;4.20;;
19038;SDS011;9652;49.014;12.052;2023-04-24T02:53:35;4.87;;;4.37;;
19038;SDS011;9652;49.014;12.052;2023-04-24T02:56:02;4.73;;;4.33;;
19038;SDS011;9652;49.014;12.052;2023-04-24T02:58:29;4.87;;;4.33;;
19038;SDS011;9652;49.014;12.052;2023-04-24T03:00:56;4.90;;;4.50;;
19038;SDS011;9652;49.014;12.052;2023-04-24T03:03:23;4.70;;;4.20;;
19038;SDS011;9652;49.014;12.052;2023-04-24T03:05:52;4.67;;;4.27;;
19038;SDS011;9652;49.014;12.052;2023-04-24T03:08:20;5.87;;;4.17;;
19038;SDS011;9652;49.014;12.052;2023-04-24T03:10:47;4.33;;;3.93;;
19038;SDS011;9652;49.014;12.052;2023-04-24T03:13:15;5.67;;;4.30;;
19038;SDS011;9652;49.014;12.052;2023-04-24T03:15:42;4.53;;;4.13;;
19038;SDS011;9652;49.014;12.052;2023-04-24T03:18:10;3.97;;;3.67;;
19038;SDS011;9652;49.014;12.052;2023-04-24T03:20:37;4.60;;;4.20;;
19038;SDS011;9652;49.014;12.052;2023-04-24T03:23:05;6.00;;;4.37;;
19038;SDS011;9652;49.014;12.052;2023-04-24T03:25:33;4.60;;;4.20;;
19038;SDS011;9652;49.014;12.052;2023-04-24T03:28:01;4.67;;;4.27;;
19038;SDS011;9652;49.014;12.052;2023-04-24T03:30:39;4.27;;;3.97;;
19038;SDS011;9652;49.014;12.052;2023-04-24T03:33:07;4.70;;;4.30;;
19038;SDS011;9652;49.014;12.052;2023-04-24T03:35:38;4.50;;;4.10;;
19038;SDS011;9652;49.014;12.052;2023-04-24T03:38:10;4.33;;;4.00;;
19038;SDS011;9652;49.014;12.052;2023-04-24T03:40:54;3.87;;;3.57;;
19038;SDS011;9652;49.014;12.052;2023-04-24T03:43:56;3.93;;;3.63;;
19038;SDS011;9652;49.014;12.052;2023-04-24T03:46:24;5.70;;;3.93;;
19038;SDS011;9652;49.014;12.052;2023-04-24T03:48:55;4.43;;;4.03;;
19038;SDS011;9652;49.014;12.052;2023-04-24T03:51:27;4.07;;;3.77;;
19038;SDS011;9652;49.014;12.052;2023-04-24T03:54:02;3.87;;;3.57;;
19038;SDS011;9652;49.014;12.052;2023-04-24T03:56:33;5.20;;;3.70;;
19038;SDS011;9652;49.014;12.052;2023-04-24T03:59:00;3.70;;;3.40;;
19038;SDS011;9652;49.014;12.052;2023-04-24T04:01:29;3.97;;;3.57;;
19038;SDS011;9652;49.014;12.052;2023-04-24T04:04:06;4.13;;;3.80;;
19038;SDS011;9652;49.014;12.052;2023-04-24T04:06:35;4.10;;;3.80;;
19038;SDS011;9652;49.014;12.052;2023-04-24T04:09:04;4.50;;;4.10;;
19038;SDS011;9652;49.014;12.052;2023-04-24T04:11:32;4.57;;;4.17;;
19038;SDS011;9652;49.014;12.052;2023-04-24T04:14:00;4.03;;;3.63;;
19038;SDS011;9652;49.014;12.052;2023-04-24T04:16:27;3.77;;;3.40;;
19038;SDS011;9652;49.014;12.052;2023-04-24T04:19:01;4.30;;;3.90;;
19038;SDS011;9652;49.014;12.052;2023-04-24T04:21:29;3.70;;;3.40;;
19038;SDS011;9652;49.014;12.052;2023-04-24T04:24:09;5.40;;;4.27;;
19038;SDS011;9652;49.014;12.052;2023-04-24T04:26:41;4.27;;;3.87;;
19038;SDS011;9652;49.014;12.052;2023-04-24T04:29:18;4.13;;;3.50;;
19038;SDS011;9652;49.014;12.052;2023-04-24T04:31:47;4.10;;;3.80;;
19038;SDS011;9652;49.014;12.052;2023-04-24T04:34:14;5.03;;;4.53;;
19038;SDS011;9652;49.014;12.052;2023-04-24T04:36:41;4.20;;;3.87;;
19038;SDS011;9652;49.014;12.052;2023-04-24T04:39:30;4.43;;;4.03;;
19038;SDS011;9652;49.014;12.052;2023-04-24T04:42:01;4.23;;;3.93;;
19038;SDS011;9652;49.014;12.052;2023-04-24T04:44:40;3.40;;;3.10;;
19038;SDS011;9652;49.014;12.052;2023-04-24T04:47:12;3.80;;;3.50;;
19038;SDS011;9652;49.014;12.052;2023-04-24T04:49:40;3.80;;;3.50;;
19038;SDS011;9652;49.014;12.052;2023-04-24T04:52:15;3.57;;;3.27;;
19038;SDS011;9652;49.014;12.052;2023-04-24T04:54:45;5.80;;;3.50;;
19038;SDS011;9652;49.014;12.052;2023-04-24T04:57:12;3.60;;;3.30;;
19038;SDS011;9652;49.014;12.052;2023-04-24T04:59:40;3.77;;;3.47;;
19038;SDS011;9652;49.014;12.052;2023-04-24T05:02:13;3.37;;;3.07;;
19038;SDS011;9652;49.014;12.052;2023-04-24T05:04:40;3.17;;;2.93;;
19038;SDS011;9652;49.014;12.052;2023-04-24T05:07:07;3.10;;;2.90;;
19038;SDS011;9652;49.014;12.052;2023-04-24T05:09:38;3.30;;;3.00;;
19038;SDS011;9652;49.014;12.052;2023-04-24T05:12:07;3.43;;;3.13;;
19038;SDS011;9652;49.014;12.052;2023-04-24T05:14:41;3.27;;;3.00;;
19038;SDS011;9652;49.014;12.052;2023-04-24T05:17:10;3.77;;;3.47;;
19038;SDS011;9652;49.014;12.052;2023-04-24T05:19:37;4.47;;;2.87;;
19038;SDS011;9652;49.014;12.052;2023-04-24T05:22:06;3.00;;;2.80;;
19038;SDS011;9652;49.014;12.052;2023-04-24T05:24:40;3.43;;;3.03;;
19038;SDS011;9652;49.014;12.052;2023-04-24T05:27:35;3.80;;;2.93;;
19038;SDS011;9652;49.014;12.052;2023-04-24T05:30:08;2.87;;;2.57;;
19038;SDS011;9652;49.014;12.052;2023-04-24T05:32:36;2.77;;;2.50;;
19038;SDS011;9652;49.014;12.052;2023-04-24T05:35:04;2.87;;;2.67;;
19038;SDS011;9652;49.014;12.052;2023-04-24T05:37:32;2.80;;;2.60;;
19038;SDS011;9652;49.014;12.052;2023-04-24T05:39:59;2.70;;;2.50;;
19038;SDS011;9652;49.014;12.052;2023-04-24T05:42:26;2.60;;;2.40;;
19038;SDS011;9652;49.014;12.052;2023-04-24T05:44:54;2.83;;;2.63;;
19038;SDS011;9652;49.014;12.052;2023-04-24T05:47:21;2.60;;;2.40;;
19038;SDS011;9652;49.014;12.052;2023-04-24T05:49:50;2.50;;;2.30;;
19038;SDS011;9652;49.014;12.052;2023-04-24T05:52:17;2.13;;;2.03;;
19038;SDS011;9652;49.014;12.052;2023-04-24T05:54:45;2.40;;;2.20;;
19038;SDS011;9652;49.014;12.052;2023-04-24T05:57:17;2.50;;;2.27;;
19038;SDS011;9652;49.014;12.052;2023-04-24T05:59:52;2.20;;;2.07;;
19038;SDS011;9652;49.014;12.052;2023-04-24T06:02:22;2.17;;;1.97;;
19038;SDS011;9652;49.014;12.052;2023-04-24T06:04:49;2.40;;;2.17;;
19038;SDS011;9652;49.014;12.052;2023-04-24T06:07:17;4.03;;;2.30;;
19038;SDS011;9652;49.014;12.052;2023-04-24T06:09:44;3.80;;;3.03;;
19038;SDS011;9652;49.014;12.052;2023-04-24T06:12:11;3.30;;;3.00;;
19038;SDS011;9652;49.014;12.052;2023-04-24T06:14:58;2.20;;;2.10;;
19038;SDS011;9652;49.014;12.052;2023-04-24T06:17:47;2.80;;;2.60;;
19038;SDS011;9652;49.014;12.052;2023-04-24T06:20:16;2.60;;;2.40;;
19038;SDS011;9652;49.014;12.052;2023-04-24T06:22:43;4.40;;;2.20;;
19038;SDS011;9652;49.014;12.052;2023-04-24T06:25:10;3.20;;;2.97;;
19038;SDS011;9652;49.014;12.052;2023-04-24T06:27:37;4.33;;;2.47;;
19038;SDS011;9652;49.014;12.052;2023-04-24T06:30:07;3.00;;;2.80;;
19038;SDS011;9652;49.014;12.052;2023-04-24T06:32:36;3.10;;;2.87;;
19038;SDS011;9652;49.014;12.052;2023-04-24T06:35:05;2.53;;;2.33;;
19038;SDS011;9652;49.014;12.052;2023-04-24T06:37:35;2.77;;;2.57;;
19038;SDS011;9652;49.014;12.052;2023-04-24T06:40:02;3.10;;;2.60;;
19038;SDS011;9652;49.014;12.052;2023-04-24T06:42:30;2.77;;;2.57;;
19038;SDS011;9652;49.014;12.052;2023-04-24T06:44:57;3.00;;;2.77;;
19038;SDS011;9652;49.014;12.052;2023-04-24T06:47:24;3.00;;;2.73;;
19038;SDS011;9652;49.014;12.052;2023-04-24T06:49:51;2.90;;;2.70;;
19038;SDS011;9652;49.014;12.052;2023-04-24T06:52:21;2.70;;;2.50;;
19038;SDS011;9652;49.014;12.052;2023-04-24T06:54:48;2.97;;;2.73;;
19038;SDS011;9652;49.014;12.052;2023-04-24T06:57:15;2.60;;;2.40;;
19038;SDS011;9652;49.014;12.052;2023-04-24T06:59:42;2.63;;;2.23;;
19038;SDS011;9652;49.014;12.052;2023-04-24T07:02:09;2.53;;;2.33;;
19038;SDS011;9652;49.014;12.052;2023-04-24T07:04:36;2.43;;;2.13;;
19038;SDS011;9652;49.014;12.052;2023-04-24T07:07:03;2.07;;;1.97;;
19038;SDS011;9652;49.014;12.052;2023-04-24T07:09:33;3.87;;;2.30;;
19038;SDS011;9652;49.014;12.052;2023-04-24T07:12:03;2.40;;;2.20;;
19038;SDS011;9652;49.014;12.052;2023-04-24T07:14:30;2.37;;;2.17;;
19038;SDS011;9652;49.014;12.052;2023-04-24T07:16:57;2.23;;;2.03;;
19038;SDS011;9652;49.014;12.052;2023-04-24T07:19:24;2.30;;;1.90;;
19038;SDS011;9652;49.014;12.052;2023-04-24T07:21:51;1.80;;;1.60;;
19038;SDS011;9652;49.014;12.052;2023-04-24T07:24:20;2.17;;;2.03;;
19038;SDS011;9652;49.014;12.052;2023-04-24T07:26:48;4.80;;;1.60;;
19038;SDS011;9652;49.014;12.052;2023-04-24T07:29:17;1.70;;;1.60;;
19038;SDS011;9652;49.014;12.052;2023-04-24T07:31:45;1.60;;;1.50;;
19038;SDS011;9652;49.014;12.052;2023-04-24T07:34:12;1.87;;;1.77;;
19038;SDS011;9652;49.014;12.052;2023-04-24T07:36:38;1.50;;;1.40;;
19038;SDS011;9652;49.014;12.052;2023-04-24T07:39:07;2.50;;;1.37;;
19038;SDS011;9652;49.014;12.052;2023-04-24T07:41:34;2.33;;;1.37;;
19038;SDS011;9652;49.014;12.052;2023-04-24T07:44:02;1.43;;;1.33;;
19038;SDS011;9652;49.014;12.052;2023-04-24T07:46:30;2.40;;;1.27;;
19038;SDS011;9652;49.014;12.052;2023-04-24T07:48:57;1.43;;;1.33;;
19038;SDS011;9652;49.014;12.052;2023-04-24T07:51:26;1.30;;;1.20;;
19038;SDS011;9652;49.014;12.052;2023-04-24T07:53:53;2.20;;;1.60;;
19038;SDS011;9652;49.014;12.052;2023-04-24T07:56:20;2.60;;;1.70;;
19038;SDS011;9652;49.014;12.052;2023-04-24T07:58:47;1.40;;;1.30;;
19038;SDS011;9652;49.014;12.052;2023-04-24T08:01:16;1.30;;;1.17;;
19038;SDS011;9652;49.014;12.052;2023-04-24T08:03:43;3.80;;;1.17;;
19038;SDS011;9652;49.014;12.052;2023-04-24T08:06:10;1.50;;;1.13;;
19038;SDS011;9652;49.014;12.052;2023-04-24T08:08:37;1.67;;;0.80;;
19038;SDS011;9652;49.014;12.052;2023-04-24T08:11:04;1.00;;;1.00;;
19038;SDS011;9652;49.014;12.052;2023-04-24T08:13:31;1.00;;;1.00;;
19038;SDS011;9652;49.014;12.052;2023-04-24T08:15:58;1.10;;;1.00;;
19038;SDS011;9652;49.014;12.052;2023-04-24T08:18:27;0.80;;;0.80;;
19038;SDS011;9652;49.014;12.052;2023-04-24T08:20:54;1.50;;;1.00;;
19038;SDS011;9652;49.014;12.052;2023-04-24T08:23:26;1.10;;;1.00;;
19038;SDS011;9652;49.014;12.052;2023-04-24T08:25:53;1.10;;;1.00;;
19038;SDS011;9652;49.014;12.052;2023-04-24T08:28:21;2.40;;;0.97;;
19038;SDS011;9652;49.014;12.052;2023-04-24T08:30:48;7.93;;;1.27;;
19038;SDS011;9652;49.014;12.052;2023-04-24T08:33:19;1.30;;;1.20;;
19038;SDS011;9652;49.014;12.052;2023-04-24T08:35:47;1.30;;;1.20;;
19038;SDS011;9652;49.014;12.052;2023-04-24T08:38:15;1.03;;;1.00;;
19038;SDS011;9652;49.014;12.052;2023-04-24T08:40:42;1.60;;;1.23;;
19038;SDS011;9652;49.014;12.052;2023-04-24T08:43:11;1.23;;;1.13;;
19038;SDS011;9652;49.014;12.052;2023-04-24T08:45:39;1.60;;;1.50;;
19038;SDS011;9652;49.014;12.052;2023-04-24T08:48:07;2.40;;;1.30;;
19038;SDS011;9652;49.014;12.052;2023-04-24T08:50:35;1.77;;;1.37;;
19038;SDS011;9652;49.014;12.052;2023-04-24T08:53:07;1.57;;;1.20;;
19038;SDS011;9652;49.014;12.052;2023-04-24T08:55:35;1.50;;;1.40;;
19038;SDS011;9652;49.014;12.052;2023-04-24T08:58:03;1.60;;;1.50;;
19038;SDS011;9652;49.014;12.052;2023-04-24T09:00:30;3.00;;;1.60;;
19038;SDS011;9652;49.014;12.052;2023-04-24T09:03:00;1.40;;;1.30;;
19038;SDS011;9652;49.014;12.052;2023-04-24T09:05:28;2.40;;;1.60;;
19038;SDS011;9652;49.014;12.052;2023-04-24T09:07:56;1.23;;;1.13;;
19038;SDS011;9652;49.014;12.052;2023-04-24T09:10:27;1.47;;;1.37;;
19038;SDS011;9652;49.014;12.052;2023-04-24T09:12:55;3.10;;;1.27;;
19038;SDS011;9652;49.014;12.052;2023-04-24T09:15:27;1.83;;;1.40;;
19038;SDS011;9652;49.014;12.052;2023-04-24T09:17:55;1.53;;;1.43;;
19038;SDS011;9652;49.014;12.052;2023-04-24T09:20:22;2.23;;;1.37;;
19038;SDS011;9652;49.014;12.052;2023-04-24T09:22:52;1.53;;;1.43;;
19038;SDS011;9652;49.014;12.052;2023-04-24T09:25:21;1.60;;;1.50;;
19038;SDS011;9652;49.014;12.052;2023-04-24T09:27:50;1.43;;;1.40;;
19038;SDS011;9652;49.014;12.052;2023-04-24T09:30:21;1.63;;;1.27;;
19038;SDS011;9652;49.014;12.052;2023-04-24T09:32:48;1.57;;;1.47;;
19038;SDS011;9652;49.014;12.052;2023-04-24T09:35:15;1.63;;;1.53;;
19038;SDS011;9652;49.014;12.052;2023-04-24T09:37:43;1.63;;;1.53;;
19038;SDS011;9652;49.014;12.052;2023-04-24T09:40:15;1.43;;;1.33;;
19038;SDS011;9652;49.014;12.052;2023-04-24T09:42:44;1.30;;;1.20;;
19038;SDS011;9652;49.014;12.052;2023-04-24T09:45:18;1.50;;;1.40;;
19038;SDS011;9652;49.014;12.052;2023-04-24T09:47:46;1.13;;;1.13;;
19038;SDS011;9652;49.014;12.052;2023-04-24T09:50:18;1.30;;;1.20;;
19038;SDS011;9652;49.014;12.052;2023-04-24T09:52:46;2.00;;;1.40;;
19038;SDS011;9652;49.014;12.052;2023-04-24T09:55:26;2.00;;;1.30;;
19038;SDS011;9652;49.014;12.052;2023-04-24T09:57:53;1.30;;;1.20;;
19038;SDS011;9652;49.014;12.052;2023-04-24T10:00:24;1.33;;;1.20;;
19038;SDS011;9652;49.014;12.052;2023-04-24T10:02:54;1.13;;;1.00;;
19038;SDS011;9652;49.014;12.052;2023-04-24T10:05:23;1.20;;;1.13;;
19038;SDS011;9652;49.014;12.052;2023-04-24T10:07:56;1.30;;;1.20;;
19038;SDS011;9652;49.014;12.052;2023-04-24T10:10:25;1.23;;;1.13;;
19038;SDS011;9652;49.014;12.052;2023-04-24T10:12:53;1.03;;;0.93;;
19038;SDS011;9652;49.014;12.052;2023-04-24T10:15:21;1.00;;;1.00;;
19038;SDS011;9652;49.014;12.052;2023-04-24T10:17:50;3.23;;;1.27;;
19038;SDS011;9652;49.014;12.052;2023-04-24T10:20:19;1.30;;;1.20;;
19038;SDS011;9652;49.014;12.052;2023-04-24T10:22:48;1.33;;;1.20;;
19038;SDS011;9652;49.014;12.052;2023-04-24T10:25:17;1.57;;;1.23;;
19038;SDS011;9652;49.014;12.052;2023-04-24T10:27:46;1.33;;;1.20;;
19038;SDS011;9652;49.014;12.052;2023-04-24T10:30:15;2.00;;;1.00;;
19038;SDS011;9652;49.014;12.052;2023-04-24T10:32:43;1.50;;;1.40;;
19038;SDS011;9652;49.014;12.052;2023-04-24T10:35:12;1.30;;;1.20;;
19038;SDS011;9652;49.014;12.052;2023-04-24T10:37:42;2.07;;;1.60;;
19038;SDS011;9652;49.014;12.052;2023-04-24T10:40:17;1.80;;;1.50;;
19038;SDS011;9652;49.014;12.052;2023-04-24T10:42:46;1.97;;;1.33;;
19038;SDS011;9652;49.014;12.052;2023-04-24T10:45:17;1.13;;;0.97;;
19038;SDS011;9652;49.014;12.052;2023-04-24T10:50:43;1.20;;;0.93;;
19038;SDS011;9652;49.014;12.052;2023-04-24T10:53:13;1.10;;;1.10;;
19038;SDS011;9652;49.014;12.052;2023-04-24T10:55:43;1.30;;;1.20;;
19038;SDS011;9652;49.014;12.052;2023-04-24T10:58:13;1.40;;;1.30;;
19038;SDS011;9652;49.014;12.052;2023-04-24T11:00:41;0.97;;;0.90;;
19038;SDS011;9652;49.014;12.052;2023-04-24T11:03:23;1.30;;;1.00;;
19038;SDS011;9652;49.014;12.052;2023-04-24T11:05:55;2.20;;;1.00;;
19038;SDS011;9652;49.014;12.052;2023-04-24T11:08:26;1.53;;;0.90;;
19038;SDS011;9652;49.014;12.052;2023-04-24T11:10:59;1.67;;;1.20;;
19038;SDS011;9652;49.014;12.052;2023-04-24T11:16:32;1.27;;;0.83;;
19038;SDS011;9652;49.014;12.052;2023-04-24T11:19:17;1.57;;;1.10;;
19038;SDS011;9652;49.014;12.052;2023-04-24T11:21:55;1.90;;;1.10;;
19038;SDS011;9652;49.014;12.052;2023-04-24T11:24:32;2.30;;;1.00;;
19038;SDS011;9652;49.014;12.052;2023-04-24T11:27:12;2.13;;;1.10;;
19038;SDS011;9652;49.014;12.052;2023-04-24T11:29:43;1.80;;;1.30;;
19038;SDS011;9652;49.014;12.052;2023-04-24T11:35:03;1.17;;;1.13;;
19038;SDS011;9652;49.014;12.052;2023-04-24T11:37:35;1.00;;;1.00;;
19038;SDS011;9652;49.014;12.052;2023-04-24T11:40:04;4.30;;;1.03;;
19038;SDS011;9652;49.014;12.052;2023-04-24T11:42:33;1.80;;;1.30;;
19038;SDS011;9652;49.014;12.052;2023-04-24T11:45:01;1.23;;;1.10;;
19038;SDS011;9652;49.014;12.052;2023-04-24T11:47:34;2.90;;;1.43;;
19038;SDS011;9652;49.014;12.052;2023-04-24T11:50:01;1.00;;;1.00;;
19038;SDS011;9652;49.014;12.052;2023-04-24T11:52:31;1.27;;;1.17;;
19038;SDS011;9652;49.014;12.052;2023-04-24T11:55:03;1.13;;;1.10;;
19038;SDS011;9652;49.014;12.052;2023-04-24T11:57:33;0.90;;;0.90;;
19038;SDS011;9652;49.014;12.052;2023-04-24T12:00:02;0.90;;;0.90;;
19038;SDS011;9652;49.014;12.052;2023-04-24T12:02:37;1.20;;;1.10;;
19038;SDS011;9652;49.014;12.052;2023-04-24T12:05:05;1.37;;;1.27;;
19038;SDS011;9652;49.014;12.052;2023-04-24T12:07:39;2.33;;;1.37;;
19038;SDS011;9652;49.014;12.052;2023-04-24T12:10:09;1.50;;;1.40;;
19038;SDS011;9652;49.014;12.052;2023-04-24T12:12:36;1.57;;;1.40;;
19038;SDS011;9652;49.014;12.052;2023-04-24T12:15:06;1.30;;;1.20;;
19038;SDS011;9652;49.014;12.052;2023-04-24T12:17:35;1.20;;;1.10;;
19038;SDS011;9652;49.014;12.052;2023-04-24T12:20:03;1.23;;;1.13;;
19038;SDS011;9652;49.014;12.052;2023-04-24T12:22:46;1.40;;;1.30;;
19038;SDS011;9652;49.014;12.052;2023-04-24T12:25:16;1.40;;;1.30;;
19038;SDS011;9652;49.014;12.052;2023-04-24T12:27:45;2.20;;;1.13;;
19038;SDS011;9652;49.014;12.052;2023-04-24T12:30:13;4.00;;;1.00;;
19038;SDS011;9652;49.014;12.052;2023-04-24T12:32:43;0.90;;;0.90;;
19038;SDS011;9652;49.014;12.052;2023-04-24T12:35:12;0.80;;;0.80;;
19038;SDS011;9652;49.014;12.052;2023-04-24T12:37:41;1.20;;;1.10;;
19038;SDS011;9652;49.014;12.052;2023-04-24T12:40:11;1.30;;;1.20;;
19038;SDS011;9652;49.014;12.052;2023-04-24T12:42:41;0.70;;;0.67;;
19038;SDS011;9652;49.014;12.052;2023-04-24T12:45:10;0.87;;;0.87;;
19038;SDS011;9652;49.014;12.052;2023-04-24T12:47:39;0.83;;;0.83;;
19038;SDS011;9652;49.014;12.052;2023-04-24T12:50:07;1.10;;;1.00;;
19038;SDS011;9652;49.014;12.052;2023-04-24T12:52:36;0.70;;;0.70;;
19038;SDS011;9652;49.014;12.052;2023-04-24T12:55:05;1.03;;;0.70;;
19038;SDS011;9652;49.014;12.052;2023-04-24T12:57:36;0.87;;;0.80;;
19038;SDS011;9652;49.014;12.052;2023-04-24T13:00:05;0.93;;;0.90;;
19038;SDS011;9652;49.014;12.052;2023-04-24T13:02:34;0.70;;;0.70;;
19038;SDS011;9652;49.014;12.052;2023-04-24T13:05:01;0.90;;;0.90;;
19038;SDS011;9652;49.014;12.052;2023-04-24T13:07:29;1.37;;;1.10;;
19038;SDS011;9652;49.014;12.052;2023-04-24T13:09:56;0.70;;;0.70;;
19038;SDS011;9652;49.014;12.052;2023-04-24T13:12:23;0.97;;;0.90;;
19038;SDS011;9652;49.014;12.052;2023-04-24T13:14:52;1.27;;;0.80;;
19038;SDS011;9652;49.014;12.052;2023-04-24T13:17:21;2.80;;;1.03;;
19038;SDS011;9652;49.014;12.052;2023-04-24T13:19:48;0.80;;;0.80;;
19038;SDS011;9652;49.014;12.052;2023-04-24T13:22:17;0.80;;;0.80;;
19038;SDS011;9652;49.014;12.052;2023-04-24T13:24:44;1.10;;;1.00;;
19038;SDS011;9652;49.014;12.052;2023-04-24T13:27:13;0.90;;;0.60;;
19038;SDS011;9652;49.014;12.052;2023-04-24T13:29:41;3.00;;;1.00;;
19038;SDS011;9652;49.014;12.052;2023-04-24T13:32:09;1.10;;;1.00;;
19038;SDS011;9652;49.014;12.052;2023-04-24T13:34:37;0.93;;;0.60;;
19038;SDS011;9652;49.014;12.052;2023-04-24T13:37:04;1.00;;;0.90;;
19038;SDS011;9652;49.014;12.052;2023-04-24T13:39:33;1.40;;;0.73;;
19038;SDS011;9652;49.014;12.052;2023-04-24T13:42:00;1.20;;;0.83;;
19038;SDS011;9652;49.014;12.052;2023-04-24T13:44:27;1.47;;;0.80;;
19038;SDS011;9652;49.014;12.052;2023-04-24T13:46:54;0.73;;;0.73;;
19038;SDS011;9652;49.014;12.052;2023-04-24T13:49:24;0.70;;;0.70;;
19038;SDS011;9652;49.014;12.052;2023-04-24T13:51:52;1.17;;;1.03;;
19038;SDS011;9652;49.014;12.052;2023-04-24T13:54:20;0.90;;;0.90;;
19038;SDS011;9652;49.014;12.052;2023-04-24T13:56:48;1.00;;;0.90;;
19038;SDS011;9652;49.014;12.052;2023-04-24T13:59:15;1.07;;;0.70;;
19038;SDS011;9652;49.014;12.052;2023-04-24T14:01:42;1.40;;;1.30;;
19038;SDS011;9652;49.014;12.052;2023-04-24T14:04:10;1.10;;;1.00;;
19038;SDS011;9652;49.014;12.052;2023-04-24T14:06:38;2.00;;;1.20;;
19038;SDS011;9652;49.014;12.052;2023-04-24T14:09:06;1.10;;;0.97;;
19038;SDS011;9652;49.014;12.052;2023-04-24T14:11:33;1.13;;;0.70;;
19038;SDS011;9652;49.014;12.052;2023-04-24T14:14:01;0.70;;;0.70;;
19038;SDS011;9652;49.014;12.052;2023-04-24T14:16:29;1.10;;;1.03;;
19038;SDS011;9652;49.014;12.052;2023-04-24T14:18:56;1.00;;;0.90;;
19038;SDS011;9652;49.014;12.052;2023-04-24T14:21:23;1.07;;;0.97;;
19038;SDS011;9652;49.014;12.052;2023-04-24T14:23:52;0.93;;;0.93;;
19038;SDS011;9652;49.014;12.052;2023-04-24T14:26:19;1.13;;;0.90;;
19038;SDS011;9652;49.014;12.052;2023-04-24T14:28:46;1.30;;;1.10;;
19038;SDS011;9652;49.014;12.052;2023-04-24T14:31:13;1.60;;;0.97;;
19038;SDS011;9652;49.014;12.052;2023-04-24T14:33:40;1.73;;;1.10;;
19038;SDS011;9652;49.014;12.052;2023-04-24T14:36:08;0.90;;;0.90;;
19038;SDS011;9652;49.014;12.052;2023-04-24T14:38:35;1.50;;;0.93;;
19038;SDS011;9652;49.014;12.052;2023-04-24T14:41:03;1.13;;;1.10;;
19038;SDS011;9652;49.014;12.052;2023-04-24T14:43:35;1.37;;;1.13;;
19038;SDS011;9652;49.014;12.052;2023-04-24T14:46:02;1.17;;;1.07;;
19038;SDS011;9652;49.014;12.052;2023-04-24T14:48:29;2.10;;;1.37;;
19038;SDS011;9652;49.014;12.052;2023-04-24T14:50:56;1.00;;;1.00;;
19038;SDS011;9652;49.014;12.052;2023-04-24T14:53:24;1.00;;;1.00;;
19038;SDS011;9652;49.014;12.052;2023-04-24T14:55:51;1.40;;;1.30;;
19038;SDS011;9652;49.014;12.052;2023-04-24T14:58:19;1.53;;;1.43;;
19038;SDS011;9652;49.014;12.052;2023-04-24T15:00:46;1.30;;;1.23;;
19038;SDS011;9652;49.014;12.052;2023-04-24T15:03:15;1.70;;;1.30;;
19038;SDS011;9652;49.014;12.052;2023-04-24T15:05:42;1.03;;;0.93;;
19038;SDS011;9652;49.014;12.052;2023-04-24T15:08:09;0.93;;;0.93;;